Station Historical Data
Daily Summary for June 17, 2017 Units:  English    Metric   Both
« Previous Day
Next Day »
Daily Weekly Monthly Yearly Custom
  High: Low: Average:
Temperature: 87.9 °F 68.7 °F 76.9 °F
Dew Point: 71.5 °F 65.9 °F 68 °F
Humidity: 93% 50% 76%
Wind Speed: 1.0mph 0.0mph 0mph
Wind Gust: 2.0mph - -
Wind- - SE
Pressure: 29.90 in 29.81 in -
Precipitation: 0.00 in    
Historical Graphs
 
 
Tabular Data for June 17, 2017
Time Temperature Dew Point Pressure Wind Wind Speed Wind Gust Humidity Rainfall Rate (Hourly) solar Conditions
00:00 71.3 °F 67.6 °F 29.87 in Calm     88% 0.00 in WeatherDisplay:10.37 W/m2 CLR
00:10 71.3 °F 67.6 °F 29.87 in Calm     88% 0.00 in WeatherDisplay:10.37 W/m2 CLR
00:20 71.4 °F 67.7 °F 29.87 in Calm     88% 0.00 in WeatherDisplay:10.37 W/m2 CLR
00:30 71.5 °F 67.8 °F 29.87 in Calm     88% 0.00 in WeatherDisplay:10.37 W/m2 CLR
00:40 71.5 °F 67.4 °F 29.87 in Calm     87% 0.00 in WeatherDisplay:10.37 W/m2 CLR
00:50 71.5 °F 67.4 °F 29.87 in Calm     87% 0.00 in WeatherDisplay:10.37 W/m2 CLR
01:00 71.3 °F 67.2 °F 29.86 in Calm     87% 0.00 in WeatherDisplay:10.37 W/m2 CLR
01:10 71.0 °F 67.3 °F 29.86 in Calm     88% 0.00 in WeatherDisplay:10.37 W/m2 CLR
01:20 70.7 °F 67.0 °F 29.86 in Calm     88% 0.00 in WeatherDisplay:10.37 W/m2 CLR
01:40 70.5 °F 67.1 °F 29.85 in Calm     89% 0.00 in WeatherDisplay:10.37 W/m2 CLR
01:50 69.6 °F 65.9 °F 29.85 in Calm     88% 0.00 in WeatherDisplay:10.37 W/m2 CLR
02:00 69.6 °F 65.9 °F 29.85 in Calm     88% 0.00 in WeatherDisplay:10.37 W/m2 CLR
02:10 69.6 °F 65.9 °F 29.85 in Calm     88% 0.00 in WeatherDisplay:10.37 W/m2 CLR
02:20 69.6 °F 65.9 °F 29.85 in Calm     88% 0.00 in WeatherDisplay:10.37 W/m2 CLR
02:30 69.6 °F 65.9 °F 29.85 in Calm     88% 0.00 in WeatherDisplay:10.37 W/m2 CLR
02:40 69.6 °F 65.9 °F 29.85 in Calm     88% 0.00 in WeatherDisplay:10.37 W/m2 CLR
02:50 69.6 °F 65.9 °F 29.85 in Calm     88% 0.00 in WeatherDisplay:10.37 W/m2 CLR
03:00 69.6 °F 65.9 °F 29.85 in Calm     88% 0.00 in WeatherDisplay:10.37 W/m2 CLR
03:10 69.6 °F 65.9 °F 29.85 in Calm     88% 0.00 in WeatherDisplay:10.37 W/m2 CLR
03:20 69.6 °F 65.9 °F 29.85 in Calm     88% 0.00 in WeatherDisplay:10.37 W/m2 CLR
03:30 69.6 °F 65.9 °F 29.84 in Calm     88% 0.00 in WeatherDisplay:10.37 W/m2 CLR
03:40 69.6 °F 65.9 °F 29.84 in Calm     88% 0.00 in WeatherDisplay:10.37 W/m2 CLR
03:50 69.6 °F 65.9 °F 29.84 in Calm     88% 0.00 in WeatherDisplay:10.37 W/m2 CLR
04:00 69.6 °F 65.9 °F 29.84 in Calm     88% 0.00 in WeatherDisplay:10.37 W/m2 CLR
04:10 69.6 °F 65.9 °F 29.83 in Calm     88% 0.00 in WeatherDisplay:10.37 W/m2 CLR
04:20 69.6 °F 65.9 °F 29.84 in Calm     88% 0.00 in WeatherDisplay:10.37 W/m2 CLR
04:30 69.6 °F 65.9 °F 29.84 in Calm     88% 0.00 in WeatherDisplay:10.37 W/m2 CLR
04:40 69.6 °F 65.9 °F 29.84 in Calm     88% 0.00 in WeatherDisplay:10.37 W/m2 CLR
04:50 69.6 °F 65.9 °F 29.84 in Calm     88% 0.00 in WeatherDisplay:10.37 W/m2 CLR
05:00 69.6 °F 65.9 °F 29.84 in Calm     88% 0.00 in WeatherDisplay:10.37 W/m2 CLR
05:10 69.6 °F 65.9 °F 29.84 in Calm     88% 0.00 in WeatherDisplay:10.37 W/m2 CLR
05:20 69.6 °F 65.9 °F 29.84 in Calm     88% 0.00 in WeatherDisplay:10.37 W/m2 CLR
05:30 69.6 °F 65.9 °F 29.84 in Calm     88% 0.00 in WeatherDisplay:10.37 W/m2 CLR
05:40 69.6 °F 65.9 °F 29.85 in Calm     88% 0.00 in WeatherDisplay:10.37 W/m2 CLR
05:50 69.6 °F 65.9 °F 29.85 in Calm     88% 0.00 in WeatherDisplay:10.37 W/m2 CLR
06:00 69.6 °F 65.9 °F 29.86 in Calm     88% 0.00 in WeatherDisplay:10.37 W/m2 CLR
06:10 69.6 °F 65.9 °F 29.86 in Calm     88% 0.00 in WeatherDisplay:10.37 W/m2 CLR
06:20 69.6 °F 65.9 °F 29.86 in Calm     88% 0.00 in WeatherDisplay:10.37 W/m2 CLR
06:30 69.6 °F 65.9 °F 29.87 in Calm     88% 0.00 in WeatherDisplay:10.37 W/m2 CLR
06:40 69.6 °F 65.9 °F 29.87 in Calm     88% 0.00 in WeatherDisplay:10.37 W/m2 CLR
06:50 69.6 °F 65.9 °F 29.88 in Calm     88% 0.00 in WeatherDisplay:10.37 W/m2 CLR
07:00 69.6 °F 65.9 °F 29.88 in Calm     88% 0.00 in WeatherDisplay:10.37 W/m2 CLR
07:10 69.6 °F 65.9 °F 29.88 in Calm     88% 0.00 in WeatherDisplay:10.37 W/m2 CLR
07:20 69.6 °F 65.9 °F 29.88 in Calm     88% 0.00 in WeatherDisplay:10.37 W/m2 CLR
07:30 69.6 °F 65.9 °F 29.89 in Calm     88% 0.00 in WeatherDisplay:10.37 W/m2 CLR
07:40 69.6 °F 65.9 °F 29.89 in Calm     88% 0.00 in WeatherDisplay:10.37 W/m2 CLR
07:50 68.7 °F 66.6 °F 29.89 in Calm     93% 0.00 in WeatherDisplay:10.37 W/m2 CLR
08:00 69.2 °F 67.1 °F 29.90 in Calm     93% 0.00 in WeatherDisplay:10.37 W/m2 CLR
08:10 69.7 °F 67.3 °F 29.90 in Calm     92% 0.00 in WeatherDisplay:10.37 W/m2 CLR
08:20 70.3 °F 67.9 °F 29.89 in Calm     92% 0.00 in WeatherDisplay:10.37 W/m2 CLR
08:30 71.0 °F 68.3 °F 29.89 in Calm     91% 0.00 in WeatherDisplay:10.37 W/m2 CLR
08:40 71.9 °F 68.2 °F 29.89 in Calm     88% 0.00 in WeatherDisplay:10.37 W/m2 CLR
08:50 72.9 °F 68.4 °F 29.88 in Calm     86% 0.00 in WeatherDisplay:10.37 W/m2 CLR
09:00 73.5 °F 68.4 °F 29.89 in Calm     84% 0.00 in WeatherDisplay:10.37 W/m2 CLR
09:10 74.1 °F 69.3 °F 29.89 in Calm     85% 0.00 in WeatherDisplay:10.37 W/m2 CLR
09:20 74.8 °F 69.3 °F 29.90 in Calm     83% 0.00 in WeatherDisplay:10.37 W/m2 CLR
09:30 75.3 °F 69.4 °F 29.90 in Calm   1.0 mph 82% 0.00 in WeatherDisplay:10.37 W/m2 CLR
09:40 75.7 °F 69.8 °F 29.90 in Calm   1.0 mph 82% 0.00 in WeatherDisplay:10.37 W/m2 CLR
09:50 76.2 °F 70.3 °F 29.90 in Calm     82% 0.00 in WeatherDisplay:10.37 W/m2 CLR
10:00 77.0 °F 70.7 °F 29.89 in Calm   1.0 mph 81% 0.00 in WeatherDisplay:10.37 W/m2 CLR
10:10 78.4 °F 71.0 °F 29.89 in Calm   1.0 mph 78% 0.00 in WeatherDisplay:10.37 W/m2 CLR
10:20 80.1 °F 71.5 °F 29.89 in Calm   1.0 mph 75% 0.00 in WeatherDisplay:10.37 W/m2 CLR
10:30 80.9 °F 70.2 °F 29.89 in NW 1.0 mph 1.0 mph 70% 0.00 in WeatherDisplay:10.37 W/m2 CLR
10:40 80.1 °F 71.1 °F 29.89 in Calm     74% 0.00 in WeatherDisplay:10.37 W/m2 CLR
10:50 80.5 °F 71.5 °F 29.88 in Calm   1.0 mph 74% 0.00 in WeatherDisplay:10.37 W/m2 CLR
11:00 81.2 °F 70.5 °F 29.88 in Calm   1.0 mph 70% 0.00 in WeatherDisplay:10.37 W/m2 CLR
11:10 81.8 °F 70.6 °F 29.89 in Calm   1.0 mph 69% 0.00 in WeatherDisplay:10.37 W/m2 CLR
11:20 82.0 °F 70.0 °F 29.89 in Calm   1.0 mph 67% 0.00 in WeatherDisplay:10.37 W/m2 CLR
11:30 81.8 °F 69.7 °F 29.89 in Calm     67% 0.00 in WeatherDisplay:10.37 W/m2 CLR
11:40 82.2 °F 70.5 °F 29.89 in Calm   1.0 mph 68% 0.00 in WeatherDisplay:10.37 W/m2 CLR
11:50 82.7 °F 70.2 °F 29.89 in Calm   1.0 mph 66% 0.00 in WeatherDisplay:10.37 W/m2 CLR
12:00 82.4 °F 69.0 °F 29.89 in Calm   2.0 mph 64% 0.00 in WeatherDisplay:10.37 W/m2 CLR
12:10 82.9 °F 69.9 °F 29.89 in Calm   2.0 mph 65% 0.00 in WeatherDisplay:10.37 W/m2 CLR
12:30 83.3 °F 68.0 °F 29.88 in Calm   2.0 mph 60% 0.00 in WeatherDisplay:10.37 W/m2 CLR
12:40 83.3 °F 68.9 °F 29.88 in Calm   1.0 mph 62% 0.00 in WeatherDisplay:10.37 W/m2 CLR
12:50 84.0 °F 69.1 °F 29.88 in Calm   1.0 mph 61% 0.00 in WeatherDisplay:10.37 W/m2 CLR
13:00 85.9 °F 69.4 °F 29.87 in Calm   1.0 mph 58% 0.00 in WeatherDisplay:10.37 W/m2 CLR
13:10 85.9 °F 67.9 °F 29.87 in NNE 1.0 mph 1.0 mph 55% 0.00 in WeatherDisplay:10.37 W/m2 CLR
13:20 87.0 °F 69.9 °F 29.86 in Calm   1.0 mph 57% 0.00 in WeatherDisplay:10.37 W/m2 CLR
13:30 87.9 °F 69.2 °F 29.86 in Calm   1.0 mph 54% 0.00 in WeatherDisplay:10.37 W/m2 CLR
13:40 87.9 °F 69.7 °F 29.85 in Calm   1.0 mph 55% 0.00 in WeatherDisplay:10.37 W/m2 CLR
13:50 87.9 °F 70.8 °F 29.85 in Calm   1.0 mph 57% 0.00 in WeatherDisplay:10.37 W/m2 CLR
14:00 87.3 °F 68.6 °F 29.85 in Calm   1.0 mph 54% 0.00 in WeatherDisplay:10.37 W/m2 CLR
14:10 87.6 °F 68.4 °F 29.85 in Calm   2.0 mph 53% 0.00 in WeatherDisplay:10.37 W/m2 CLR
14:20 87.0 °F 69.4 °F 29.85 in Calm   1.0 mph 56% 0.00 in WeatherDisplay:10.37 W/m2 CLR
14:30 87.0 °F 69.9 °F 29.84 in Calm   2.0 mph 57% 0.00 in WeatherDisplay:10.37 W/m2 CLR
14:40 86.2 °F 67.6 °F 29.84 in Calm   2.0 mph 54% 0.00 in WeatherDisplay:10.37 W/m2 CLR
14:50 86.1 °F 68.1 °F 29.84 in Calm   1.0 mph 55% 0.00 in WeatherDisplay:10.37 W/m2 CLR
15:00 86.6 °F 68.0 °F 29.84 in Calm   1.0 mph 54% 0.00 in WeatherDisplay:10.37 W/m2 CLR
15:10 86.8 °F 66.5 °F 29.83 in Calm   1.0 mph 51% 0.00 in WeatherDisplay:10.37 W/m2 CLR
15:20 86.2 °F 66.5 °F 29.83 in Calm     52% 0.00 in WeatherDisplay:10.37 W/m2 CLR
15:30 86.6 °F 69.5 °F 29.82 in Calm     57% 0.00 in WeatherDisplay:10.37 W/m2 CLR
15:40 87.0 °F 66.1 °F 29.82 in ENE 1.0 mph 2.0 mph 50% 0.00 in WeatherDisplay:10.37 W/m2 CLR
15:50 86.8 °F 65.9 °F 29.82 in Calm   2.0 mph 50% 0.00 in WeatherDisplay:10.37 W/m2 CLR
16:00 86.8 °F 66.5 °F 29.82 in Calm   1.0 mph 51% 0.00 in WeatherDisplay:10.37 W/m2 CLR
16:10 86.7 °F 66.4 °F 29.82 in Calm   1.0 mph 51% 0.00 in WeatherDisplay:10.37 W/m2 CLR
16:20 86.8 °F 67.1 °F 29.82 in Calm   1.0 mph 52% 0.00 in WeatherDisplay:10.37 W/m2 CLR
16:30 86.8 °F 67.1 °F 29.82 in Calm   1.0 mph 52% 0.00 in WeatherDisplay:10.37 W/m2 CLR
16:40 86.9 °F 66.0 °F 29.82 in Calm   1.0 mph 50% 0.00 in WeatherDisplay:10.37 W/m2 CLR
16:50 85.6 °F 67.6 °F 29.82 in Calm   1.0 mph 55% 0.00 in WeatherDisplay:10.37 W/m2 CLR
17:00 84.5 °F 68.6 °F 29.81 in Calm   1.0 mph 59% 0.00 in WeatherDisplay:10.37 W/m2 CLR
17:10 83.5 °F 69.1 °F 29.81 in Calm   1.0 mph 62% 0.00 in WeatherDisplay:10.37 W/m2 CLR
17:20 83.0 °F 69.1 °F 29.81 in Calm     63% 0.00 in WeatherDisplay:10.37 W/m2 CLR
17:30 83.5 °F 70.0 °F 29.81 in Calm     64% 0.00 in WeatherDisplay:10.37 W/m2 CLR
17:40 82.8 °F 68.4 °F 29.81 in Calm   1.0 mph 62% 0.00 in WeatherDisplay:10.37 W/m2 CLR
17:50 82.2 °F 68.8 °F 29.81 in Calm     64% 0.00 in WeatherDisplay:10.37 W/m2 CLR
18:00 81.8 °F 70.2 °F 29.82 in Calm   1.0 mph 68% 0.00 in WeatherDisplay:10.37 W/m2 CLR
18:10 81.6 °F 68.7 °F 29.82 in Calm   2.0 mph 65% 0.00 in WeatherDisplay:10.37 W/m2 CLR
18:20 81.5 °F 68.6 °F 29.81 in Calm   1.0 mph 65% 0.00 in WeatherDisplay:10.37 W/m2 CLR
18:30 81.5 °F 69.1 °F 29.83 in Calm   2.0 mph 66% 0.00 in WeatherDisplay:10.37 W/m2 CLR
18:40 81.1 °F 68.2 °F 29.83 in Calm   2.0 mph 65% 0.00 in WeatherDisplay:10.37 W/m2 CLR
18:50 80.8 °F 68.0 °F 29.82 in Calm   1.0 mph 65% 0.00 in WeatherDisplay:10.37 W/m2 CLR
19:00 80.6 °F 68.7 °F 29.83 in Calm   1.0 mph 67% 0.00 in WeatherDisplay:10.37 W/m2 CLR
19:10 80.2 °F 68.7 °F 29.83 in Calm   1.0 mph 68% 0.00 in WeatherDisplay:10.37 W/m2 CLR
19:20 79.8 °F 67.9 °F 29.83 in Calm   1.0 mph 67% 0.00 in WeatherDisplay:10.37 W/m2 CLR
19:30 79.6 °F 68.9 °F 29.83 in Calm     70% 0.00 in WeatherDisplay:10.37 W/m2 CLR
19:40 79.4 °F 68.8 °F 29.83 in Calm     70% 0.00 in WeatherDisplay:10.37 W/m2 CLR
20:00 79.1 °F 69.3 °F 29.84 in Calm     72% 0.00 in WeatherDisplay:10.37 W/m2 CLR
20:10 78.9 °F 69.5 °F 29.86 in Calm   1.0 mph 73% 0.00 in WeatherDisplay:10.37 W/m2 CLR
20:20 78.6 °F 69.6 °F 29.86 in Calm     74% 0.00 in WeatherDisplay:10.37 W/m2 CLR
20:30 78.3 °F 68.9 °F 29.86 in Calm     73% 0.00 in WeatherDisplay:10.37 W/m2 CLR
20:40 78.1 °F 68.7 °F 29.86 in Calm     73% 0.00 in WeatherDisplay:10.37 W/m2 CLR
20:50 77.8 °F 68.8 °F 29.86 in Calm     74% 0.00 in WeatherDisplay:10.37 W/m2 CLR
21:00 77.4 °F 68.9 °F 29.86 in Calm     75% 0.00 in WeatherDisplay:10.37 W/m2 CLR
21:10 77.1 °F 68.9 °F 29.86 in Calm     76% 0.00 in WeatherDisplay:10.37 W/m2 CLR
21:20 76.8 °F 69.0 °F 29.86 in Calm     77% 0.00 in WeatherDisplay:10.37 W/m2 CLR
21:30 76.6 °F 68.8 °F 29.86 in Calm     77% 0.00 in WeatherDisplay:10.37 W/m2 CLR
21:40 76.3 °F 68.9 °F 29.87 in Calm     78% 0.00 in WeatherDisplay:10.37 W/m2 CLR
21:50 76.1 °F 69.1 °F 29.87 in Calm     79% 0.00 in WeatherDisplay:10.37 W/m2 CLR
22:00 75.8 °F 69.2 °F 29.87 in Calm     80% 0.00 in WeatherDisplay:10.37 W/m2 CLR
22:10 75.6 °F 69.0 °F 29.87 in Calm     80% 0.00 in WeatherDisplay:10.37 W/m2 CLR
22:20 75.2 °F 68.9 °F 29.87 in Calm     81% 0.00 in WeatherDisplay:10.37 W/m2 CLR
22:30 74.9 °F 69.4 °F 29.88 in Calm     83% 0.00 in WeatherDisplay:10.37 W/m2 CLR
22:40 74.8 °F 69.3 °F 29.88 in Calm     83% 0.00 in WeatherDisplay:10.37 W/m2 CLR
22:50 74.8 °F 69.3 °F 29.88 in Calm     83% 0.00 in WeatherDisplay:10.37 W/m2 CLR
23:00 74.6 °F 69.1 °F 29.88 in Calm     83% 0.00 in WeatherDisplay:10.37 W/m2 CLR
23:10 74.4 °F 69.2 °F 29.88 in Calm     84% 0.00 in WeatherDisplay:10.37 W/m2 CLR
23:20 74.2 °F 69.4 °F 29.88 in Calm     85% 0.00 in WeatherDisplay:10.37 W/m2 CLR
23:30 73.9 °F 69.1 °F 29.88 in Calm     85% 0.00 in WeatherDisplay:10.37 W/m2 CLR
23:40 73.7 °F 69.2 °F 29.88 in Calm     86% 0.00 in WeatherDisplay:10.37 W/m2 CLR
23:50 73.5 °F 69.1 °F 29.88 in Calm     86% 0.00 in WeatherDisplay:10.37 W/m2 CLR
Piedmont Bend
Compliments of Weather Underground - 4 mb